Terminal Aerodrome Forecast
Issued by NWS Mt. Holly, NJ

Home | Current Version | Previous Version | Text Only | Print | Product List | Glossary On
Versions: 1 2 3 4 5 6 7 8 9 10 11 12 13 14 15 16
812
FTUS41 KPHI 230158 AAA
TAFILG
TAF AMD
KILG 230158Z 2302/2324 36009KT P6SM FEW250
     FM231800 28007KT P6SM SCT250=

USA.gov is the U.S. government's official web portal to all federal, state and local government web resources and services.